Lillyville, Illinois
Current Conditions -  °F | °C
As of 7:35 AM on Friday 28 Nov 2014 (Local Time) from K1H2 Reporting Station
Overcast Overcast  
Wind Chill: 11°   Ceiling: 12000
Heat Index: 22°   Visibility: 10mi
Dew Point: 16°   Wind: 12mph
Humidity: 77%   Direction: 130°SE
Pressure: 30.31"   Gusts: NA
Location:  39.1183°N, 88.6059°W
Report Text: K1H2 281335Z AUTO 13010KT 10SM OVC120 M05/M09 A3031 RMK AO2 T10541088
Loading
Personal Weather Stations






























Interactive Weather Map New forecast layout! Learn more

10-Day Weather Forecast

Advertisements
Track Severe Weather on mobile